sensor_id;sensor_type;location;lat;lon;timestamp;temperature;humidity
80274;DHT22;69576;51.902;-8.462;2023-05-24T00:02:25;16.40;64.10
80274;DHT22;69576;51.902;-8.462;2023-05-24T00:04:53;16.40;63.90
80274;DHT22;69576;51.902;-8.462;2023-05-24T00:07:19;16.40;63.80
80274;DHT22;69576;51.902;-8.462;2023-05-24T00:09:45;16.40;64.00
80274;DHT22;69576;51.902;-8.462;2023-05-24T00:12:11;16.40;64.10
80274;DHT22;69576;51.902;-8.462;2023-05-24T00:14:36;16.40;64.20
80274;DHT22;69576;51.902;-8.462;2023-05-24T00:17:02;16.30;63.90
80274;DHT22;69576;51.902;-8.462;2023-05-24T00:19:33;16.30;63.90
80274;DHT22;69576;51.902;-8.462;2023-05-24T00:22:03;16.20;63.90
80274;DHT22;69576;51.902;-8.462;2023-05-24T00:24:33;16.20;64.00
80274;DHT22;69576;51.902;-8.462;2023-05-24T00:27:01;16.20;64.20
80274;DHT22;69576;51.902;-8.462;2023-05-24T00:29:27;16.20;64.10
80274;DHT22;69576;51.902;-8.462;2023-05-24T00:31:52;16.20;63.80
80274;DHT22;69576;51.902;-8.462;2023-05-24T00:34:21;16.20;64.10
80274;DHT22;69576;51.902;-8.462;2023-05-24T00:36:49;16.20;64.10
80274;DHT22;69576;51.902;-8.462;2023-05-24T00:39:15;16.20;64.00
80274;DHT22;69576;51.902;-8.462;2023-05-24T00:41:43;16.10;63.80
80274;DHT22;69576;51.902;-8.462;2023-05-24T00:44:09;16.10;64.00
80274;DHT22;69576;51.902;-8.462;2023-05-24T00:46:35;16.10;63.90
80274;DHT22;69576;51.902;-8.462;2023-05-24T00:49:03;16.10;64.00
80274;DHT22;69576;51.902;-8.462;2023-05-24T00:51:29;16.10;64.20
80274;DHT22;69576;51.902;-8.462;2023-05-24T00:53:59;16.00;64.00
80274;DHT22;69576;51.902;-8.462;2023-05-24T00:56:25;16.00;64.10
80274;DHT22;69576;51.902;-8.462;2023-05-24T00:58:53;16.00;64.00
80274;DHT22;69576;51.902;-8.462;2023-05-24T01:01:20;16.00;64.10
80274;DHT22;69576;51.902;-8.462;2023-05-24T01:03:52;16.00;64.20
80274;DHT22;69576;51.902;-8.462;2023-05-24T01:06:21;16.00;64.40
80274;DHT22;69576;51.902;-8.462;2023-05-24T01:09:08;16.00;64.30
80274;DHT22;69576;51.902;-8.462;2023-05-24T01:11:38;16.00;64.00
80274;DHT22;69576;51.902;-8.462;2023-05-24T01:17:04;16.00;64.30
80274;DHT22;69576;51.902;-8.462;2023-05-24T01:25:11;16.00;64.30
80274;DHT22;69576;51.902;-8.462;2023-05-24T01:27:43;16.00;64.80
80274;DHT22;69576;51.902;-8.462;2023-05-24T01:30:11;16.00;64.20
80274;DHT22;69576;51.902;-8.462;2023-05-24T01:32:40;15.90;64.20
80274;DHT22;69576;51.902;-8.462;2023-05-24T01:35:06;15.90;64.30
80274;DHT22;69576;51.902;-8.462;2023-05-24T01:37:32;15.90;64.30
80274;DHT22;69576;51.902;-8.462;2023-05-24T01:39:58;15.80;64.30
80274;DHT22;69576;51.902;-8.462;2023-05-24T01:42:35;15.80;64.20
80274;DHT22;69576;51.902;-8.462;2023-05-24T01:47:58;15.80;64.40
80274;DHT22;69576;51.902;-8.462;2023-05-24T01:50:37;15.80;64.50
80274;DHT22;69576;51.902;-8.462;2023-05-24T01:53:08;15.80;64.40
80274;DHT22;69576;51.902;-8.462;2023-05-24T01:55:36;15.80;64.30
80274;DHT22;69576;51.902;-8.462;2023-05-24T01:58:04;15.80;64.30
80274;DHT22;69576;51.902;-8.462;2023-05-24T02:00:30;15.80;64.60
80274;DHT22;69576;51.902;-8.462;2023-05-24T02:02:57;15.80;64.20
80274;DHT22;69576;51.902;-8.462;2023-05-24T02:05:23;15.70;64.30
80274;DHT22;69576;51.902;-8.462;2023-05-24T02:07:51;15.70;64.50
80274;DHT22;69576;51.902;-8.462;2023-05-24T02:10:17;15.70;64.60
80274;DHT22;69576;51.902;-8.462;2023-05-24T02:12:45;15.70;64.40
80274;DHT22;69576;51.902;-8.462;2023-05-24T02:15:13;15.70;64.40
80274;DHT22;69576;51.902;-8.462;2023-05-24T02:17:40;15.60;64.30
80274;DHT22;69576;51.902;-8.462;2023-05-24T02:20:07;15.60;64.40
80274;DHT22;69576;51.902;-8.462;2023-05-24T02:22:33;15.60;64.60
80274;DHT22;69576;51.902;-8.462;2023-05-24T02:24:59;15.60;64.50
80274;DHT22;69576;51.902;-8.462;2023-05-24T02:27:27;15.60;64.30
80274;DHT22;69576;51.902;-8.462;2023-05-24T02:29:53;15.60;64.40
80274;DHT22;69576;51.902;-8.462;2023-05-24T02:32:21;15.60;64.30
80274;DHT22;69576;51.902;-8.462;2023-05-24T02:34:46;15.60;64.40
80274;DHT22;69576;51.902;-8.462;2023-05-24T02:37:12;15.60;64.50
80274;DHT22;69576;51.902;-8.462;2023-05-24T02:39:40;15.60;64.90
80274;DHT22;69576;51.902;-8.462;2023-05-24T02:42:06;15.60;64.70
80274;DHT22;69576;51.902;-8.462;2023-05-24T02:44:36;15.60;64.70
80274;DHT22;69576;51.902;-8.462;2023-05-24T02:47:04;15.60;64.60
80274;DHT22;69576;51.902;-8.462;2023-05-24T02:49:30;15.60;64.70
80274;DHT22;69576;51.902;-8.462;2023-05-24T02:51:56;15.60;64.70
80274;DHT22;69576;51.902;-8.462;2023-05-24T02:54:21;15.60;64.70
80274;DHT22;69576;51.902;-8.462;2023-05-24T02:56:49;15.50;64.60
80274;DHT22;69576;51.902;-8.462;2023-05-24T02:59:15;15.50;64.50
80274;DHT22;69576;51.902;-8.462;2023-05-24T03:01:43;15.50;64.70
80274;DHT22;69576;51.902;-8.462;2023-05-24T03:04:09;15.50;64.70
80274;DHT22;69576;51.902;-8.462;2023-05-24T03:06:35;15.50;64.70
80274;DHT22;69576;51.902;-8.462;2023-05-24T03:09:00;15.50;65.00
80274;DHT22;69576;51.902;-8.462;2023-05-24T03:11:31;15.50;65.00
80274;DHT22;69576;51.902;-8.462;2023-05-24T03:13:57;15.50;64.90
80274;DHT22;69576;51.902;-8.462;2023-05-24T03:16:23;15.50;64.70
80274;DHT22;69576;51.902;-8.462;2023-05-24T03:18:50;15.50;65.00
80274;DHT22;69576;51.902;-8.462;2023-05-24T03:21:17;15.50;64.70
80274;DHT22;69576;51.902;-8.462;2023-05-24T03:23:47;15.40;64.70
80274;DHT22;69576;51.902;-8.462;2023-05-24T03:26:13;15.40;64.60
80274;DHT22;69576;51.902;-8.462;2023-05-24T03:28:39;15.40;64.60
80274;DHT22;69576;51.902;-8.462;2023-05-24T03:31:09;15.40;64.70
80274;DHT22;69576;51.902;-8.462;2023-05-24T03:33:35;15.40;64.70
80274;DHT22;69576;51.902;-8.462;2023-05-24T03:36:01;15.40;64.50
80274;DHT22;69576;51.902;-8.462;2023-05-24T03:38:28;15.40;64.80
80274;DHT22;69576;51.902;-8.462;2023-05-24T03:40:58;15.40;65.00
80274;DHT22;69576;51.902;-8.462;2023-05-24T03:43:24;15.40;65.00
80274;DHT22;69576;51.902;-8.462;2023-05-24T03:45:54;15.40;65.30
80274;DHT22;69576;51.902;-8.462;2023-05-24T03:48:20;15.40;65.40
80274;DHT22;69576;51.902;-8.462;2023-05-24T03:50:48;15.30;65.50
80274;DHT22;69576;51.902;-8.462;2023-05-24T03:53:16;15.30;65.00
80274;DHT22;69576;51.902;-8.462;2023-05-24T03:55:42;15.30;65.50
80274;DHT22;69576;51.902;-8.462;2023-05-24T03:58:13;15.30;65.30
80274;DHT22;69576;51.902;-8.462;2023-05-24T04:00:41;15.30;65.40
80274;DHT22;69576;51.902;-8.462;2023-05-24T04:03:08;15.30;65.20
80274;DHT22;69576;51.902;-8.462;2023-05-24T04:05:37;15.30;65.20
80274;DHT22;69576;51.902;-8.462;2023-05-24T04:08:03;15.30;65.00
80274;DHT22;69576;51.902;-8.462;2023-05-24T04:10:29;15.30;65.10
80274;DHT22;69576;51.902;-8.462;2023-05-24T04:12:55;15.30;65.20
80274;DHT22;69576;51.902;-8.462;2023-05-24T04:15:22;15.30;65.10
80274;DHT22;69576;51.902;-8.462;2023-05-24T04:17:50;15.20;65.00
80274;DHT22;69576;51.902;-8.462;2023-05-24T04:20:22;15.20;65.10
80274;DHT22;69576;51.902;-8.462;2023-05-24T04:22:50;15.20;65.00
80274;DHT22;69576;51.902;-8.462;2023-05-24T04:25:16;15.20;64.90
80274;DHT22;69576;51.902;-8.462;2023-05-24T04:27:42;15.20;65.00
80274;DHT22;69576;51.902;-8.462;2023-05-24T04:30:10;15.20;64.90
80274;DHT22;69576;51.902;-8.462;2023-05-24T04:32:38;15.20;65.30
80274;DHT22;69576;51.902;-8.462;2023-05-24T04:35:05;15.20;65.10
80274;DHT22;69576;51.902;-8.462;2023-05-24T04:37:32;15.20;65.20
80274;DHT22;69576;51.902;-8.462;2023-05-24T04:39:58;15.20;65.10
80274;DHT22;69576;51.902;-8.462;2023-05-24T04:42:28;15.20;65.20
80274;DHT22;69576;51.902;-8.462;2023-05-24T04:44:57;15.20;65.10
80274;DHT22;69576;51.902;-8.462;2023-05-24T04:47:26;15.10;65.00
80274;DHT22;69576;51.902;-8.462;2023-05-24T04:49:52;15.10;65.00
80274;DHT22;69576;51.902;-8.462;2023-05-24T04:52:20;15.10;65.60
80274;DHT22;69576;51.902;-8.462;2023-05-24T04:54:49;15.10;66.30
80274;DHT22;69576;51.902;-8.462;2023-05-24T04:57:16;15.20;66.70
80274;DHT22;69576;51.902;-8.462;2023-05-24T04:59:42;15.20;66.80
80274;DHT22;69576;51.902;-8.462;2023-05-24T05:02:08;15.30;67.10
80274;DHT22;69576;51.902;-8.462;2023-05-24T05:04:36;15.30;66.70
80274;DHT22;69576;51.902;-8.462;2023-05-24T05:07:02;15.30;67.20
80274;DHT22;69576;51.902;-8.462;2023-05-24T05:09:30;15.30;66.30
80274;DHT22;69576;51.902;-8.462;2023-05-24T05:11:56;15.30;66.10
80274;DHT22;69576;51.902;-8.462;2023-05-24T05:14:22;15.30;66.00
80274;DHT22;69576;51.902;-8.462;2023-05-24T05:16:50;15.20;66.00
80274;DHT22;69576;51.902;-8.462;2023-05-24T05:19:16;15.20;65.70
80274;DHT22;69576;51.902;-8.462;2023-05-24T05:21:42;15.20;65.60
80274;DHT22;69576;51.902;-8.462;2023-05-24T05:24:08;15.20;65.30
80274;DHT22;69576;51.902;-8.462;2023-05-24T05:26:36;15.20;65.50
80274;DHT22;69576;51.902;-8.462;2023-05-24T05:29:02;15.20;65.50
80274;DHT22;69576;51.902;-8.462;2023-05-24T05:31:28;15.20;65.40
80274;DHT22;69576;51.902;-8.462;2023-05-24T05:33:57;15.20;65.60
80274;DHT22;69576;51.902;-8.462;2023-05-24T05:36:23;15.20;65.80
80274;DHT22;69576;51.902;-8.462;2023-05-24T05:38:48;15.20;65.70
80274;DHT22;69576;51.902;-8.462;2023-05-24T05:41:14;15.20;65.30
80274;DHT22;69576;51.902;-8.462;2023-05-24T05:43:40;15.20;65.20
80274;DHT22;69576;51.902;-8.462;2023-05-24T05:46:06;15.20;65.10
80274;DHT22;69576;51.902;-8.462;2023-05-24T05:48:34;15.20;65.10
80274;DHT22;69576;51.902;-8.462;2023-05-24T05:51:03;15.20;65.20
80274;DHT22;69576;51.902;-8.462;2023-05-24T05:53:29;15.20;65.00
80274;DHT22;69576;51.902;-8.462;2023-05-24T05:55:57;15.20;65.20
80274;DHT22;69576;51.902;-8.462;2023-05-24T05:58:23;15.20;65.30
80274;DHT22;69576;51.902;-8.462;2023-05-24T06:00:49;15.20;65.10
80274;DHT22;69576;51.902;-8.462;2023-05-24T06:03:17;15.20;65.10
80274;DHT22;69576;51.902;-8.462;2023-05-24T06:05:43;15.20;65.30
80274;DHT22;69576;51.902;-8.462;2023-05-24T06:08:09;15.20;65.10
80274;DHT22;69576;51.902;-8.462;2023-05-24T06:10:35;15.30;65.30
80274;DHT22;69576;51.902;-8.462;2023-05-24T06:13:03;15.30;65.10
80274;DHT22;69576;51.902;-8.462;2023-05-24T06:15:29;15.30;65.00
80274;DHT22;69576;51.902;-8.462;2023-05-24T06:17:58;15.40;64.80
80274;DHT22;69576;51.902;-8.462;2023-05-24T06:20:30;15.50;64.80
80274;DHT22;69576;51.902;-8.462;2023-05-24T06:22:58;15.50;64.70
80274;DHT22;69576;51.902;-8.462;2023-05-24T06:25:24;15.60;64.50
80274;DHT22;69576;51.902;-8.462;2023-05-24T06:27:54;15.60;64.30
80274;DHT22;69576;51.902;-8.462;2023-05-24T06:30:20;15.60;64.20
80274;DHT22;69576;51.902;-8.462;2023-05-24T06:32:46;15.60;64.10
80274;DHT22;69576;51.902;-8.462;2023-05-24T06:35:12;15.60;64.00
80274;DHT22;69576;51.902;-8.462;2023-05-24T06:37:38;15.60;64.30
80274;DHT22;69576;51.902;-8.462;2023-05-24T06:40:07;15.70;64.10
80274;DHT22;69576;51.902;-8.462;2023-05-24T06:42:36;15.70;64.00
80274;DHT22;69576;51.902;-8.462;2023-05-24T06:45:02;15.80;63.90
80274;DHT22;69576;51.902;-8.462;2023-05-24T06:47:28;15.80;63.90
80274;DHT22;69576;51.902;-8.462;2023-05-24T06:49:54;15.80;63.90
80274;DHT22;69576;51.902;-8.462;2023-05-24T06:52:20;15.80;63.90
80274;DHT22;69576;51.902;-8.462;2023-05-24T06:54:48;15.80;64.00
80274;DHT22;69576;51.902;-8.462;2023-05-24T06:57:14;15.90;64.00
80274;DHT22;69576;51.902;-8.462;2023-05-24T06:59:45;16.00;64.00
80274;DHT22;69576;51.902;-8.462;2023-05-24T07:02:11;16.00;63.90
80274;DHT22;69576;51.902;-8.462;2023-05-24T07:04:39;16.00;64.00
80274;DHT22;69576;51.902;-8.462;2023-05-24T07:07:08;16.00;64.10
80274;DHT22;69576;51.902;-8.462;2023-05-24T07:09:38;16.10;64.10
80274;DHT22;69576;51.902;-8.462;2023-05-24T07:12:04;16.10;64.10
80274;DHT22;69576;51.902;-8.462;2023-05-24T07:14:30;16.20;64.30
80274;DHT22;69576;51.902;-8.462;2023-05-24T07:16:58;16.20;64.20
80274;DHT22;69576;51.902;-8.462;2023-05-24T07:19:24;16.20;64.70
80274;DHT22;69576;51.902;-8.462;2023-05-24T07:21:56;16.30;64.90
80274;DHT22;69576;51.902;-8.462;2023-05-24T07:24:21;16.40;64.60
80274;DHT22;69576;51.902;-8.462;2023-05-24T07:26:49;16.40;64.30
80274;DHT22;69576;51.902;-8.462;2023-05-24T07:29:15;16.40;64.40
80274;DHT22;69576;51.902;-8.462;2023-05-24T07:31:43;16.50;64.20
80274;DHT22;69576;51.902;-8.462;2023-05-24T07:34:09;16.50;64.60
80274;DHT22;69576;51.902;-8.462;2023-05-24T07:36:37;16.50;64.30
80274;DHT22;69576;51.902;-8.462;2023-05-24T07:39:05;16.60;64.50
80274;DHT22;69576;51.902;-8.462;2023-05-24T07:41:34;16.60;64.30
80274;DHT22;69576;51.902;-8.462;2023-05-24T07:44:05;16.70;64.40
80274;DHT22;69576;51.902;-8.462;2023-05-24T07:46:30;16.70;64.50
80274;DHT22;69576;51.902;-8.462;2023-05-24T07:48:57;16.80;64.80
80274;DHT22;69576;51.902;-8.462;2023-05-24T07:51:23;16.80;64.30
80274;DHT22;69576;51.902;-8.462;2023-05-24T07:53:48;16.90;64.40
80274;DHT22;69576;51.902;-8.462;2023-05-24T07:56:14;16.90;64.80
80274;DHT22;69576;51.902;-8.462;2023-05-24T07:58:40;16.90;64.70
80274;DHT22;69576;51.902;-8.462;2023-05-24T08:01:08;17.00;64.70
80274;DHT22;69576;51.902;-8.462;2023-05-24T08:03:36;17.00;64.80
80274;DHT22;69576;51.902;-8.462;2023-05-24T08:06:07;17.20;65.00
80274;DHT22;69576;51.902;-8.462;2023-05-24T08:08:32;17.20;64.40
80274;DHT22;69576;51.902;-8.462;2023-05-24T08:10:58;17.20;64.60
80274;DHT22;69576;51.902;-8.462;2023-05-24T08:13:26;17.40;64.80
80274;DHT22;69576;51.902;-8.462;2023-05-24T08:15:55;17.50;64.90
80274;DHT22;69576;51.902;-8.462;2023-05-24T08:18:23;17.60;64.90
80274;DHT22;69576;51.902;-8.462;2023-05-24T08:20:51;17.90;64.90
80274;DHT22;69576;51.902;-8.462;2023-05-24T08:23:19;18.10;64.70
80274;DHT22;69576;51.902;-8.462;2023-05-24T08:25:48;18.30;64.30
80274;DHT22;69576;51.902;-8.462;2023-05-24T08:28:15;18.50;64.00
80274;DHT22;69576;51.902;-8.462;2023-05-24T08:30:41;18.60;63.90
80274;DHT22;69576;51.902;-8.462;2023-05-24T08:33:08;18.80;63.60
80274;DHT22;69576;51.902;-8.462;2023-05-24T08:35:36;18.90;63.40
80274;DHT22;69576;51.902;-8.462;2023-05-24T08:38:02;19.00;62.90
80274;DHT22;69576;51.902;-8.462;2023-05-24T08:40:30;19.10;62.60
80274;DHT22;69576;51.902;-8.462;2023-05-24T08:42:58;19.20;62.20
80274;DHT22;69576;51.902;-8.462;2023-05-24T08:45:27;19.30;61.00
80274;DHT22;69576;51.902;-8.462;2023-05-24T08:47:56;19.40;60.60
80274;DHT22;69576;51.902;-8.462;2023-05-24T08:50:23;19.40;60.70
80274;DHT22;69576;51.902;-8.462;2023-05-24T08:52:50;19.50;60.30
80274;DHT22;69576;51.902;-8.462;2023-05-24T08:55:20;19.50;60.00
80274;DHT22;69576;51.902;-8.462;2023-05-24T08:57:46;19.70;59.50
80274;DHT22;69576;51.902;-8.462;2023-05-24T09:00:16;19.70;59.50
80274;DHT22;69576;51.902;-8.462;2023-05-24T09:02:45;19.80;59.20
80274;DHT22;69576;51.902;-8.462;2023-05-24T09:05:12;19.90;59.00
80274;DHT22;69576;51.902;-8.462;2023-05-24T09:07:45;20.00;58.70
80274;DHT22;69576;51.902;-8.462;2023-05-24T09:10:11;20.10;58.40
80274;DHT22;69576;51.902;-8.462;2023-05-24T09:12:38;20.10;58.30
80274;DHT22;69576;51.902;-8.462;2023-05-24T09:15:06;20.30;58.40
80274;DHT22;69576;51.902;-8.462;2023-05-24T09:17:36;20.30;58.10
80274;DHT22;69576;51.902;-8.462;2023-05-24T09:20:02;20.50;57.90
80274;DHT22;69576;51.902;-8.462;2023-05-24T09:22:31;20.60;57.90
80274;DHT22;69576;51.902;-8.462;2023-05-24T09:25:04;20.80;57.20
80274;DHT22;69576;51.902;-8.462;2023-05-24T09:27:31;21.00;56.50
80274;DHT22;69576;51.902;-8.462;2023-05-24T09:29:59;21.10;56.40
80274;DHT22;69576;51.902;-8.462;2023-05-24T09:32:26;21.20;56.70
80274;DHT22;69576;51.902;-8.462;2023-05-24T09:34:57;21.30;56.30
80274;DHT22;69576;51.902;-8.462;2023-05-24T09:37:26;21.40;56.10
80274;DHT22;69576;51.902;-8.462;2023-05-24T09:39:53;21.40;56.00
80274;DHT22;69576;51.902;-8.462;2023-05-24T09:42:24;21.40;55.90
80274;DHT22;69576;51.902;-8.462;2023-05-24T09:45:05;21.40;56.00
80274;DHT22;69576;51.902;-8.462;2023-05-24T09:47:35;21.40;55.30
80274;DHT22;69576;51.902;-8.462;2023-05-24T09:50:04;21.50;55.90
80274;DHT22;69576;51.902;-8.462;2023-05-24T09:52:39;21.50;55.90
80274;DHT22;69576;51.902;-8.462;2023-05-24T09:55:16;21.60;55.50
80274;DHT22;69576;51.902;-8.462;2023-05-24T09:57:49;21.50;55.20
80274;DHT22;69576;51.902;-8.462;2023-05-24T10:00:23;21.40;54.60
80274;DHT22;69576;51.902;-8.462;2023-05-24T10:03:06;21.40;54.80
80274;DHT22;69576;51.902;-8.462;2023-05-24T10:05:36;21.40;55.40
80274;DHT22;69576;51.902;-8.462;2023-05-24T10:08:02;21.40;55.30
80274;DHT22;69576;51.902;-8.462;2023-05-24T10:10:32;21.50;55.10
80274;DHT22;69576;51.902;-8.462;2023-05-24T10:13:01;21.50;55.00
80274;DHT22;69576;51.902;-8.462;2023-05-24T10:15:28;21.60;54.70
80274;DHT22;69576;51.902;-8.462;2023-05-24T10:17:59;21.70;54.60
80274;DHT22;69576;51.902;-8.462;2023-05-24T10:20:26;21.70;54.50
80274;DHT22;69576;51.902;-8.462;2023-05-24T10:23:03;21.80;54.60
80274;DHT22;69576;51.902;-8.462;2023-05-24T10:25:32;21.90;54.20
80274;DHT22;69576;51.902;-8.462;2023-05-24T10:28:01;21.90;54.10
80274;DHT22;69576;51.902;-8.462;2023-05-24T10:31:23;22.00;54.10
80274;DHT22;69576;51.902;-8.462;2023-05-24T10:33:23;22.10;54.10
80274;DHT22;69576;51.902;-8.462;2023-05-24T10:35:52;22.20;54.10
80274;DHT22;69576;51.902;-8.462;2023-05-24T10:38:22;22.20;53.90
80274;DHT22;69576;51.902;-8.462;2023-05-24T10:40:51;22.20;53.50
80274;DHT22;69576;51.902;-8.462;2023-05-24T10:43:20;22.20;53.40
80274;DHT22;69576;51.902;-8.462;2023-05-24T10:45:52;22.10;53.30
80274;DHT22;69576;51.902;-8.462;2023-05-24T10:50:49;22.00;53.00
80274;DHT22;69576;51.902;-8.462;2023-05-24T10:53:20;21.90;53.00
80274;DHT22;69576;51.902;-8.462;2023-05-24T10:58:17;21.70;53.10
80274;DHT22;69576;51.902;-8.462;2023-05-24T11:00:45;21.50;53.30
80274;DHT22;69576;51.902;-8.462;2023-05-24T11:03:13;21.50;53.50
80274;DHT22;69576;51.902;-8.462;2023-05-24T11:11:10;21.20;54.50
80274;DHT22;69576;51.902;-8.462;2023-05-24T11:13:38;21.10;54.40
80274;DHT22;69576;51.902;-8.462;2023-05-24T11:16:05;21.10;54.30
80274;DHT22;69576;51.902;-8.462;2023-05-24T11:18:31;21.10;54.30
80274;DHT22;69576;51.902;-8.462;2023-05-24T11:21:00;21.00;54.10
80274;DHT22;69576;51.902;-8.462;2023-05-24T11:23:30;20.90;54.40
80274;DHT22;69576;51.902;-8.462;2023-05-24T11:25:56;20.90;54.70
80274;DHT22;69576;51.902;-8.462;2023-05-24T11:28:23;20.80;55.00
80274;DHT22;69576;51.902;-8.462;2023-05-24T11:30:49;20.80;54.70
80274;DHT22;69576;51.902;-8.462;2023-05-24T11:35:41;20.80;55.00
80274;DHT22;69576;51.902;-8.462;2023-05-24T11:38:12;20.80;54.90
80274;DHT22;69576;51.902;-8.462;2023-05-24T11:40:42;20.70;55.20
80274;DHT22;69576;51.902;-8.462;2023-05-24T11:43:20;20.70;55.40
80274;DHT22;69576;51.902;-8.462;2023-05-24T11:45:52;20.70;55.30
80274;DHT22;69576;51.902;-8.462;2023-05-24T11:48:19;20.70;55.30
80274;DHT22;69576;51.902;-8.462;2023-05-24T11:50:48;20.70;55.50
80274;DHT22;69576;51.902;-8.462;2023-05-24T11:53:15;20.70;55.50
80274;DHT22;69576;51.902;-8.462;2023-05-24T11:55:41;20.60;55.30
80274;DHT22;69576;51.902;-8.462;2023-05-24T11:58:36;20.60;55.50
80274;DHT22;69576;51.902;-8.462;2023-05-24T12:01:24;20.60;55.40
80274;DHT22;69576;51.902;-8.462;2023-05-24T12:03:53;20.60;55.20
80274;DHT22;69576;51.902;-8.462;2023-05-24T12:06:22;20.60;54.80
80274;DHT22;69576;51.902;-8.462;2023-05-24T12:08:48;20.60;55.10
80274;DHT22;69576;51.902;-8.462;2023-05-24T12:11:15;20.60;55.30
80274;DHT22;69576;51.902;-8.462;2023-05-24T12:13:42;20.60;55.10
80274;DHT22;69576;51.902;-8.462;2023-05-24T12:16:10;20.60;55.00
80274;DHT22;69576;51.902;-8.462;2023-05-24T12:18:37;20.60;54.70
80274;DHT22;69576;51.902;-8.462;2023-05-24T12:21:08;20.60;55.10
80274;DHT22;69576;51.902;-8.462;2023-05-24T12:23:37;20.60;55.30
80274;DHT22;69576;51.902;-8.462;2023-05-24T12:26:04;20.50;55.50
80274;DHT22;69576;51.902;-8.462;2023-05-24T12:28:36;20.50;55.60
80274;DHT22;69576;51.902;-8.462;2023-05-24T12:31:04;20.50;55.40
80274;DHT22;69576;51.902;-8.462;2023-05-24T12:33:30;20.50;55.40
80274;DHT22;69576;51.902;-8.462;2023-05-24T12:35:59;20.50;55.50
80274;DHT22;69576;51.902;-8.462;2023-05-24T12:38:26;20.50;55.60
80274;DHT22;69576;51.902;-8.462;2023-05-24T12:40:54;20.50;55.70
80274;DHT22;69576;51.902;-8.462;2023-05-24T12:43:24;20.50;55.90
80274;DHT22;69576;51.902;-8.462;2023-05-24T12:45:52;20.50;55.80
80274;DHT22;69576;51.902;-8.462;2023-05-24T12:48:18;20.50;55.50
80274;DHT22;69576;51.902;-8.462;2023-05-24T12:50:44;20.50;55.70
80274;DHT22;69576;51.902;-8.462;2023-05-24T12:53:12;20.50;55.70
80274;DHT22;69576;51.902;-8.462;2023-05-24T12:55:39;20.50;55.90
80274;DHT22;69576;51.902;-8.462;2023-05-24T12:58:04;20.50;55.80
80274;DHT22;69576;51.902;-8.462;2023-05-24T13:00:36;20.50;55.80
80274;DHT22;69576;51.902;-8.462;2023-05-24T13:03:02;20.40;55.80
80274;DHT22;69576;51.902;-8.462;2023-05-24T13:05:28;20.50;56.00
80274;DHT22;69576;51.902;-8.462;2023-05-24T13:07:56;20.50;56.10
80274;DHT22;69576;51.902;-8.462;2023-05-24T13:10:23;20.40;56.00
80274;DHT22;69576;51.902;-8.462;2023-05-24T13:12:49;20.30;55.80
80274;DHT22;69576;51.902;-8.462;2023-05-24T13:15:15;20.30;55.90
80274;DHT22;69576;51.902;-8.462;2023-05-24T13:17:41;20.30;56.00
80274;DHT22;69576;51.902;-8.462;2023-05-24T13:20:07;20.30;56.10
80274;DHT22;69576;51.902;-8.462;2023-05-24T13:22:40;20.30;56.20
80274;DHT22;69576;51.902;-8.462;2023-05-24T13:25:13;20.30;56.30
80274;DHT22;69576;51.902;-8.462;2023-05-24T13:27:41;20.30;56.30
80274;DHT22;69576;51.902;-8.462;2023-05-24T13:30:10;20.30;56.50
80274;DHT22;69576;51.902;-8.462;2023-05-24T13:32:37;20.30;56.50
80274;DHT22;69576;51.902;-8.462;2023-05-24T13:35:05;20.30;56.60
80274;DHT22;69576;51.902;-8.462;2023-05-24T13:37:33;20.30;56.80
80274;DHT22;69576;51.902;-8.462;2023-05-24T13:40:01;20.20;56.80
80274;DHT22;69576;51.902;-8.462;2023-05-24T13:42:31;20.20;56.90
80274;DHT22;69576;51.902;-8.462;2023-05-24T13:44:59;20.10;57.00
80274;DHT22;69576;51.902;-8.462;2023-05-24T13:47:30;20.10;57.10
80274;DHT22;69576;51.902;-8.462;2023-05-24T13:49:56;20.10;57.10
80274;DHT22;69576;51.902;-8.462;2023-05-24T13:52:24;20.10;57.10
80274;DHT22;69576;51.902;-8.462;2023-05-24T13:54:50;20.10;57.30
80274;DHT22;69576;51.902;-8.462;2023-05-24T13:57:18;20.10;57.30
80274;DHT22;69576;51.902;-8.462;2023-05-24T13:59:46;20.10;57.40
80274;DHT22;69576;51.902;-8.462;2023-05-24T14:02:12;20.10;57.50
80274;DHT22;69576;51.902;-8.462;2023-05-24T14:04:43;20.00;57.50
80274;DHT22;69576;51.902;-8.462;2023-05-24T14:07:09;20.00;57.60
80274;DHT22;69576;51.902;-8.462;2023-05-24T14:09:40;20.00;57.70
80274;DHT22;69576;51.902;-8.462;2023-05-24T14:12:08;20.00;57.70
80274;DHT22;69576;51.902;-8.462;2023-05-24T14:14:34;20.00;57.60
80274;DHT22;69576;51.902;-8.462;2023-05-24T14:17:00;20.00;57.60
80274;DHT22;69576;51.902;-8.462;2023-05-24T14:19:28;20.00;57.60
80274;DHT22;69576;51.902;-8.462;2023-05-24T14:21:54;20.00;57.70
80274;DHT22;69576;51.902;-8.462;2023-05-24T14:24:20;20.00;57.80
80274;DHT22;69576;51.902;-8.462;2023-05-24T14:26:51;20.00;57.80
80274;DHT22;69576;51.902;-8.462;2023-05-24T14:29:16;20.00;57.90
80274;DHT22;69576;51.902;-8.462;2023-05-24T14:31:42;19.90;57.80
80274;DHT22;69576;51.902;-8.462;2023-05-24T14:34:11;19.90;57.90
80274;DHT22;69576;51.902;-8.462;2023-05-24T14:36:42;19.90;57.90
80274;DHT22;69576;51.902;-8.462;2023-05-24T14:39:09;19.90;58.00
80274;DHT22;69576;51.902;-8.462;2023-05-24T14:41:35;19.90;57.90
80274;DHT22;69576;51.902;-8.462;2023-05-24T14:44:01;19.90;57.90
80274;DHT22;69576;51.902;-8.462;2023-05-24T14:46:32;19.90;58.00
80274;DHT22;69576;51.902;-8.462;2023-05-24T14:49:00;19.90;58.00
80274;DHT22;69576;51.902;-8.462;2023-05-24T14:51:26;19.90;58.00
80274;DHT22;69576;51.902;-8.462;2023-05-24T14:53:52;19.90;58.20
80274;DHT22;69576;51.902;-8.462;2023-05-24T14:56:18;19.90;58.20
80274;DHT22;69576;51.902;-8.462;2023-05-24T14:58:49;19.90;58.20
80274;DHT22;69576;51.902;-8.462;2023-05-24T15:01:15;19.90;58.30
80274;DHT22;69576;51.902;-8.462;2023-05-24T15:03:41;19.90;58.30
80274;DHT22;69576;51.902;-8.462;2023-05-24T15:06:06;19.90;58.40
80274;DHT22;69576;51.902;-8.462;2023-05-24T15:08:33;19.90;58.40
80274;DHT22;69576;51.902;-8.462;2023-05-24T15:11:01;19.90;58.40
80274;DHT22;69576;51.902;-8.462;2023-05-24T15:13:30;19.90;58.50
80274;DHT22;69576;51.902;-8.462;2023-05-24T15:15:58;19.90;58.40
80274;DHT22;69576;51.902;-8.462;2023-05-24T15:18:29;19.90;58.40
80274;DHT22;69576;51.902;-8.462;2023-05-24T15:20:55;19.90;58.40
80274;DHT22;69576;51.902;-8.462;2023-05-24T15:23:22;19.90;58.40
80274;DHT22;69576;51.902;-8.462;2023-05-24T15:25:50;19.90;58.50
80274;DHT22;69576;51.902;-8.462;2023-05-24T15:28:16;19.90;58.50
80274;DHT22;69576;51.902;-8.462;2023-05-24T15:30:45;19.90;58.50
80274;DHT22;69576;51.902;-8.462;2023-05-24T15:33:14;19.90;58.60
80274;DHT22;69576;51.902;-8.462;2023-05-24T15:35:41;19.80;58.60
80274;DHT22;69576;51.902;-8.462;2023-05-24T15:38:09;19.80;58.60
80274;DHT22;69576;51.902;-8.462;2023-05-24T15:40:35;19.80;58.60
80274;DHT22;69576;51.902;-8.462;2023-05-24T15:43:07;19.70;58.60
80274;DHT22;69576;51.902;-8.462;2023-05-24T15:45:33;19.70;58.60